LDDU/DBV METAR and TAF weather

Enter ICAO airport designator
Station Type Date Time Source
LDDU METAR 2020/01/24 21:00 UTC NOAA

LDDU 242100Z 10008KT 9999 FEW040 BKN055 10/06 Q1029 NOSIG


Station Type Date Time Source
LDDU Decoded METAR 2020/01/24 21:00 UTC NOAA

Dubrovnik / Cilipi, Croatia (LDDU) 42-34N 018-16E 165M
Jan 24, 2020 - 04:00 PM EST / 2020.01.24 2100 UTC
Wind: from the E (100 degrees) at 9 MPH (8 KT):0
Visibility: greater than 7 mile(s):0
Sky conditions: mostly cloudy
Temperature: 50 F (10 C)
Dew Point: 42 F (6 C)
Relative Humidity: 76%
Pressure (altimeter): 30.39 in. Hg (1029 hPa)
ob: LDDU 242100Z 10008KT 9999 FEW040 BKN055 10/06 Q1029 NOSIG
cycle: 21

Station Type Date Time Source
LDDU TAF 2020/01/24 18:36 UTC NOAA

TAF TAF COR LDDU 241732Z 2418/2518 11008KT 9999 BKN030 TX12/2512Z TN07/2506Z PROB30
TEMPO 2506/2518 RA
TEMPO 2508/2515 12020KT

Example: see airport list